createdAt,value
2023-03-21T00:00:57.252Z,39.15
2023-03-21T00:03:26.059Z,34.95
2023-03-21T00:05:54.387Z,34.00
2023-03-21T00:08:24.067Z,37.03
2023-03-21T00:10:58.726Z,35.45
2023-03-21T00:13:28.406Z,33.50
2023-03-21T00:16:06.181Z,33.47
2023-03-21T00:18:46.692Z,32.83
2023-03-21T00:24:06.698Z,31.58
2023-03-21T00:26:38.212Z,32.67
2023-03-21T00:29:06.621Z,32.63
2023-03-21T00:31:34.975Z,29.50
2023-03-21T00:34:03.164Z,28.05
2023-03-21T00:36:32.787Z,31.23
2023-03-21T00:39:02.026Z,28.63
2023-03-21T00:41:45.569Z,34.72
2023-03-21T00:44:15.663Z,30.25
2023-03-21T00:46:57.080Z,29.48
2023-03-21T00:49:29.582Z,28.75
2023-03-21T00:52:08.651Z,30.38
2023-03-21T00:54:43.324Z,28.77
2023-03-21T00:57:11.383Z,28.13
2023-03-21T00:59:40.861Z,29.25
2023-03-21T01:02:15.053Z,28.67
2023-03-21T01:04:43.367Z,27.83
2023-03-21T01:07:11.583Z,28.45
2023-03-21T01:09:40.145Z,28.27
2023-03-21T01:12:08.385Z,27.75
2023-03-21T01:14:38.440Z,27.83
2023-03-21T01:17:08.507Z,28.25
2023-03-21T01:19:51.296Z,26.92
2023-03-21T01:22:21.311Z,28.00
2023-03-21T01:24:56.870Z,27.38
2023-03-21T01:27:29.315Z,27.88
2023-03-21T01:29:57.798Z,28.40
2023-03-21T01:32:28.365Z,28.23
2023-03-21T01:34:56.787Z,27.55
2023-03-21T01:37:26.545Z,28.30
2023-03-21T01:39:55.182Z,28.38
2023-03-21T01:42:24.040Z,28.80
2023-03-21T01:44:55.285Z,27.05
2023-03-21T01:47:24.248Z,30.52
2023-03-21T01:50:11.912Z,29.67
2023-03-21T01:52:51.410Z,29.67
2023-03-21T01:55:28.072Z,29.88
2023-03-21T01:58:18.359Z,32.20
2023-03-21T02:01:22.970Z,33.05
2023-03-21T02:03:56.018Z,32.90
2023-03-21T02:06:41.174Z,36.00
2023-03-21T02:09:29.173Z,34.22
2023-03-21T02:11:57.811Z,37.63
2023-03-21T02:14:33.353Z,35.30
2023-03-21T02:17:20.426Z,35.13
2023-03-21T02:20:28.425Z,40.92
2023-03-21T02:23:33.609Z,41.70
2023-03-21T02:26:42.387Z,40.67
2023-03-21T02:29:35.393Z,40.55
2023-03-21T02:32:20.220Z,40.22
2023-03-21T02:35:44.233Z,41.60
2023-03-21T02:38:30.363Z,40.95
2023-03-21T02:41:13.166Z,42.00
2023-03-21T02:43:53.640Z,53.20
2023-03-21T02:46:33.276Z,48.45
2023-03-21T02:49:12.852Z,45.80
2023-03-21T02:51:44.536Z,48.83
2023-03-21T02:54:32.280Z,49.70
2023-03-21T02:57:06.242Z,45.33
2023-03-21T02:59:44.405Z,64.43
2023-03-21T03:02:22.146Z,49.00
2023-03-21T03:04:50.707Z,54.15
2023-03-21T03:07:37.484Z,54.47
2023-03-21T03:10:29.502Z,55.53
2023-03-21T03:13:08.619Z,60.35
2023-03-21T03:15:45.883Z,54.40
2023-03-21T03:18:21.768Z,54.25
2023-03-21T03:21:02.106Z,52.58
2023-03-21T03:23:37.300Z,55.80
2023-03-21T03:26:12.425Z,47.15
2023-03-21T03:28:43.842Z,54.65
2023-03-21T03:31:26.047Z,47.08
2023-03-21T03:34:03.202Z,44.63
2023-03-21T03:36:35.835Z,47.45
2023-03-21T03:39:14.526Z,57.10
2023-03-21T03:42:21.897Z,57.97
2023-03-21T03:44:43.636Z,56.75
2023-03-21T03:47:29.886Z,51.10
2023-03-21T03:50:05.790Z,53.15
2023-03-21T03:52:53.474Z,46.38
2023-03-21T03:55:27.284Z,61.45
2023-03-21T03:58:04.660Z,52.33
2023-03-21T04:00:35.383Z,51.22
2023-03-21T04:03:03.764Z,55.28
2023-03-21T04:05:32.519Z,52.55
2023-03-21T04:08:00.907Z,55.53
2023-03-21T04:10:37.025Z,61.97
2023-03-21T04:13:06.691Z,63.22
2023-03-21T04:15:45.633Z,61.25
2023-03-21T04:18:17.259Z,58.05
2023-03-21T04:20:46.063Z,55.58
2023-03-21T04:23:14.563Z,59.67
2023-03-21T04:25:55.952Z,55.28
2023-03-21T04:28:33.679Z,62.10
2023-03-21T04:31:36.041Z,60.92
2023-03-21T04:34:13.750Z,58.38
2023-03-21T04:36:47.393Z,59.33
2023-03-21T04:39:16.827Z,62.80
2023-03-21T04:41:48.497Z,65.30
2023-03-21T04:44:19.268Z,59.20
2023-03-21T04:46:47.971Z,63.70
2023-03-21T04:49:16.141Z,63.05
2023-03-21T04:51:46.229Z,64.68
2023-03-21T04:54:19.021Z,61.40
2023-03-21T04:56:47.369Z,64.38
2023-03-21T04:59:17.805Z,64.40
2023-03-21T05:01:47.785Z,63.75
2023-03-21T05:04:16.289Z,62.03
2023-03-21T05:06:45.843Z,54.67
2023-03-21T05:09:14.661Z,56.33
2023-03-21T05:11:43.671Z,63.05
2023-03-21T05:14:17.570Z,60.97
2023-03-21T05:16:53.716Z,54.78
2023-03-21T05:19:24.108Z,56.40
2023-03-21T05:21:53.110Z,60.45
2023-03-21T05:24:24.328Z,58.50
2023-03-21T05:26:56.110Z,69.15
2023-03-21T05:29:26.607Z,55.80
2023-03-21T05:32:03.332Z,55.38
2023-03-21T05:34:32.224Z,51.25
2023-03-21T05:37:01.186Z,54.00
2023-03-21T05:39:41.267Z,54.17
2023-03-21T05:42:16.111Z,60.88
2023-03-21T05:44:45.112Z,52.60
2023-03-21T05:47:17.226Z,53.55
2023-03-21T05:49:48.313Z,60.20
2023-03-21T05:52:17.231Z,55.08
2023-03-21T05:54:46.809Z,51.15
2023-03-21T05:57:15.910Z,55.00
2023-03-21T06:00:08.963Z,58.40
2023-03-21T06:03:02.939Z,57.30
2023-03-21T06:05:51.397Z,53.65
2023-03-21T06:08:25.268Z,57.95
2023-03-21T06:10:53.472Z,53.95
2023-03-21T06:13:21.540Z,59.85
2023-03-21T06:15:50.470Z,60.15
2023-03-21T06:18:23.510Z,51.25
2023-03-21T06:21:11.632Z,50.08
2023-03-21T06:23:41.752Z,56.30
2023-03-21T06:26:10.029Z,57.42
2023-03-21T06:28:38.480Z,60.92
2023-03-21T06:31:07.251Z,57.20
2023-03-21T06:33:37.094Z,50.65
2023-03-21T06:36:05.969Z,54.97
2023-03-21T06:38:37.907Z,50.20
2023-03-21T06:41:07.594Z,44.95
2023-03-21T06:43:41.966Z,47.20
2023-03-21T06:46:10.528Z,45.88
2023-03-21T06:48:44.463Z,49.53
2023-03-21T06:51:14.060Z,45.97
2023-03-21T06:53:51.122Z,54.88
2023-03-21T06:56:40.035Z,46.53
2023-03-21T06:59:11.617Z,46.08
2023-03-21T07:01:53.036Z,38.20
2023-03-21T07:04:22.599Z,46.83
2023-03-21T07:06:51.830Z,42.67
2023-03-21T07:09:24.777Z,38.13
2023-03-21T07:11:55.741Z,38.97
2023-03-21T07:14:28.348Z,37.33
2023-03-21T07:16:58.560Z,40.83
2023-03-21T07:19:28.377Z,34.83
2023-03-21T07:21:56.666Z,35.05
2023-03-21T07:24:24.859Z,36.53
2023-03-21T07:26:54.458Z,37.05
2023-03-21T07:29:23.417Z,34.67
2023-03-21T07:31:51.663Z,33.50
2023-03-21T07:34:19.835Z,34.10
2023-03-21T07:36:49.561Z,34.35
2023-03-21T07:39:20.478Z,34.70
2023-03-21T07:41:48.798Z,28.83
2023-03-21T07:44:30.995Z,29.00
2023-03-21T07:47:04.279Z,30.27
2023-03-21T07:49:33.437Z,31.27
2023-03-21T07:52:04.825Z,34.67
2023-03-21T07:54:33.628Z,29.08
2023-03-21T07:57:02.236Z,30.90
2023-03-21T07:59:30.641Z,33.40
2023-03-21T08:01:58.732Z,34.53
2023-03-21T08:04:28.135Z,34.60
2023-03-21T08:06:57.382Z,37.15
2023-03-21T08:09:26.936Z,29.48
2023-03-21T08:11:55.552Z,28.05
2023-03-21T08:14:23.949Z,32.88
2023-03-21T08:16:52.119Z,32.50
2023-03-21T08:19:21.929Z,32.30
2023-03-21T08:21:51.072Z,35.58
2023-03-21T08:24:19.251Z,31.15
2023-03-21T08:26:48.879Z,32.03
2023-03-21T08:29:17.299Z,29.75
2023-03-21T08:31:45.421Z,28.35
2023-03-21T08:34:13.990Z,31.65
2023-03-21T08:36:42.080Z,30.75
2023-03-21T08:39:10.496Z,33.28
2023-03-21T08:41:39.216Z,29.45
2023-03-21T08:44:09.346Z,26.95
2023-03-21T08:46:37.876Z,27.85
2023-03-21T08:49:06.478Z,27.05
2023-03-21T08:51:34.769Z,26.08
2023-03-21T08:54:03.082Z,21.60
2023-03-21T08:56:31.395Z,24.88
2023-03-21T08:59:02.768Z,28.55
2023-03-21T09:01:32.808Z,27.85
2023-03-21T09:04:01.040Z,24.70
2023-03-21T09:06:30.000Z,24.55
2023-03-21T09:08:58.611Z,28.15
2023-03-21T09:11:26.812Z,25.30
2023-03-21T09:13:54.895Z,20.65
2023-03-21T09:16:25.012Z,26.38
2023-03-21T09:18:55.815Z,25.42
2023-03-21T09:21:25.150Z,22.63
2023-03-21T09:23:55.303Z,25.45
2023-03-21T09:26:25.606Z,24.25
2023-03-21T09:28:54.244Z,22.33
2023-03-21T09:31:24.728Z,21.23
2023-03-21T09:33:55.996Z,24.83
2023-03-21T09:36:25.038Z,23.85
2023-03-21T09:38:53.767Z,20.10
2023-03-21T09:41:33.702Z,21.42
2023-03-21T09:44:12.552Z,18.88
2023-03-21T09:46:46.764Z,21.67
2023-03-21T09:49:21.865Z,20.60
2023-03-21T09:51:52.982Z,20.98
2023-03-21T09:54:27.252Z,21.17
2023-03-21T09:56:58.332Z,19.95
2023-03-21T09:59:33.802Z,20.33
2023-03-21T10:02:03.500Z,16.55
2023-03-21T10:04:33.949Z,16.58
2023-03-21T10:07:04.030Z,18.30
2023-03-21T10:09:33.456Z,16.65
2023-03-21T10:12:06.398Z,13.70
2023-03-21T10:14:38.542Z,16.45
2023-03-21T10:17:26.362Z,16.88
2023-03-21T10:20:11.804Z,16.75
2023-03-21T10:22:40.619Z,20.80
2023-03-21T10:25:12.456Z,15.15
2023-03-21T10:27:40.707Z,14.10
2023-03-21T10:30:14.015Z,16.88
2023-03-21T10:32:42.276Z,14.83
2023-03-21T10:35:15.672Z,15.55
2023-03-21T10:37:43.842Z,16.98
2023-03-21T10:40:17.141Z,15.57
2023-03-21T10:42:45.637Z,20.52
2023-03-21T10:45:19.716Z,15.73
2023-03-21T10:50:25.785Z,16.02
2023-03-21T10:53:00.504Z,17.00
2023-03-21T10:55:32.407Z,18.77
2023-03-21T10:58:03.687Z,16.17
2023-03-21T11:00:37.084Z,15.13
2023-03-21T11:03:06.158Z,17.10
2023-03-21T11:05:41.562Z,15.65
2023-03-21T11:08:14.905Z,16.08
2023-03-21T11:10:55.541Z,17.58
2023-03-21T11:13:27.057Z,20.00
2023-03-21T11:15:58.647Z,19.00
2023-03-21T11:18:28.930Z,16.58
2023-03-21T11:21:03.608Z,19.52
2023-03-21T11:23:35.381Z,18.05
2023-03-21T11:26:10.041Z,18.00
2023-03-21T11:28:40.274Z,18.50
2023-03-21T11:31:09.797Z,17.15
2023-03-21T11:33:40.778Z,21.13
2023-03-21T11:36:28.829Z,17.77
2023-03-21T11:39:00.113Z,16.33
2023-03-21T11:41:31.354Z,17.75
2023-03-21T11:44:01.171Z,16.05
2023-03-21T11:46:31.163Z,15.13
2023-03-21T11:49:00.570Z,19.20
2023-03-21T11:51:42.150Z,18.38
2023-03-21T11:57:12.615Z,17.83
2023-03-21T11:59:48.278Z,17.45
2023-03-21T12:02:37.972Z,18.85
2023-03-21T12:05:16.440Z,18.08
2023-03-21T12:07:56.439Z,17.92
2023-03-21T12:10:33.724Z,19.77
2023-03-21T12:13:13.546Z,21.25
2023-03-21T12:15:46.892Z,17.88
2023-03-21T12:18:28.859Z,19.60
2023-03-21T12:20:59.832Z,18.15
2023-03-21T12:23:43.984Z,18.88
2023-03-21T12:26:23.157Z,19.73
2023-03-21T12:29:19.317Z,21.02
2023-03-21T12:32:01.621Z,20.13
2023-03-21T12:34:47.929Z,21.30
2023-03-21T12:37:25.849Z,20.05
2023-03-21T12:40:02.570Z,21.75
2023-03-21T12:43:14.967Z,26.60
2023-03-21T12:45:47.904Z,24.65
2023-03-21T12:48:22.268Z,23.20
2023-03-21T12:50:53.771Z,24.23
2023-03-21T12:53:36.068Z,25.35
2023-03-21T12:56:11.430Z,26.48
2023-03-21T12:58:48.811Z,24.25
2023-03-21T13:01:20.838Z,23.48
2023-03-21T13:03:53.208Z,26.45
2023-03-21T13:06:25.526Z,24.50
2023-03-21T13:08:59.337Z,27.88
2023-03-21T13:11:31.279Z,26.00
2023-03-21T13:14:05.409Z,29.98
2023-03-21T13:19:14.984Z,30.80
2023-03-21T13:21:51.706Z,28.40
2023-03-21T13:24:26.063Z,27.65
2023-03-21T13:27:02.568Z,27.67
2023-03-21T13:29:33.832Z,27.45
2023-03-21T13:32:10.750Z,27.50
2023-03-21T13:34:41.403Z,31.38
2023-03-21T13:37:17.752Z,27.58
2023-03-21T13:39:47.335Z,30.90
2023-03-21T13:42:24.638Z,29.15
2023-03-21T13:44:57.167Z,29.80
2023-03-21T13:47:40.651Z,32.55
2023-03-21T13:50:52.179Z,25.15
2023-03-21T13:53:30.832Z,21.92
2023-03-21T13:56:25.294Z,28.33
2023-03-21T13:59:02.123Z,22.52
2023-03-21T14:01:39.752Z,27.23
2023-03-21T14:04:15.500Z,26.85
2023-03-21T14:06:48.995Z,23.95
2023-03-21T14:09:23.325Z,28.23
2023-03-21T14:11:56.437Z,27.85
2023-03-21T14:14:31.752Z,29.67
2023-03-21T14:16:59.924Z,32.17
2023-03-21T14:19:32.826Z,30.55
2023-03-21T14:22:00.984Z,29.05
2023-03-21T14:24:29.482Z,27.50
2023-03-21T14:26:59.054Z,28.67
2023-03-21T14:29:32.929Z,29.65
2023-03-21T14:32:02.103Z,24.40
2023-03-21T14:34:33.796Z,31.08
2023-03-21T14:37:02.179Z,26.77
2023-03-21T14:39:32.150Z,37.00
2023-03-21T14:42:05.451Z,31.75
2023-03-21T14:44:53.837Z,32.63
2023-03-21T14:47:25.146Z,30.05
2023-03-21T14:49:54.109Z,30.52
2023-03-21T14:52:25.843Z,38.60
2023-03-21T14:54:55.989Z,31.88
2023-03-21T14:57:28.737Z,31.85
2023-03-21T15:00:01.872Z,34.42
2023-03-21T15:02:34.819Z,37.63
2023-03-21T15:05:11.056Z,34.42
2023-03-21T15:07:39.250Z,37.72
2023-03-21T15:10:09.824Z,29.70
2023-03-21T15:12:37.948Z,29.60
2023-03-21T15:15:08.646Z,32.75
2023-03-21T15:17:37.294Z,28.15
2023-03-21T15:20:10.157Z,31.38
2023-03-21T15:22:42.723Z,35.58
2023-03-21T15:25:18.003Z,27.60
2023-03-21T15:27:46.425Z,26.45
2023-03-21T15:30:23.386Z,27.70
2023-03-21T15:32:52.316Z,27.17
2023-03-21T15:35:23.158Z,28.42
2023-03-21T15:37:57.163Z,24.67
2023-03-21T15:40:28.226Z,26.13
2023-03-21T15:43:07.496Z,26.25
2023-03-21T15:45:48.418Z,23.52
2023-03-21T15:48:17.144Z,25.35
2023-03-21T15:50:52.154Z,21.77
2023-03-21T15:53:21.461Z,22.95
2023-03-21T15:55:52.159Z,21.95
2023-03-21T15:58:22.484Z,20.80
2023-03-21T16:00:55.583Z,22.58
2023-03-21T16:03:27.284Z,23.67
2023-03-21T16:06:17.048Z,19.27
2023-03-21T16:08:47.482Z,18.30
2023-03-21T16:11:19.731Z,21.58
2023-03-21T16:13:47.938Z,20.13
2023-03-21T16:16:20.136Z,21.88
2023-03-21T16:18:48.749Z,20.38
2023-03-21T16:21:19.267Z,22.00
2023-03-21T16:23:49.337Z,18.63
2023-03-21T16:26:19.487Z,23.73
2023-03-21T16:28:48.175Z,19.08
2023-03-21T16:31:20.336Z,18.13
2023-03-21T16:33:49.053Z,19.95
2023-03-21T16:36:19.660Z,21.25
2023-03-21T16:38:49.566Z,22.20
2023-03-21T16:41:18.431Z,23.20
2023-03-21T16:43:47.088Z,20.83
2023-03-21T16:46:18.065Z,21.27
2023-03-21T16:48:48.971Z,17.92
2023-03-21T16:51:19.350Z,17.67
2023-03-21T16:53:47.864Z,22.80
2023-03-21T16:56:18.246Z,20.85
2023-03-21T16:58:46.713Z,19.67
2023-03-21T17:01:19.176Z,20.55
2023-03-21T17:03:48.666Z,22.38
2023-03-21T17:06:18.980Z,17.98
2023-03-21T17:08:47.989Z,19.77
2023-03-21T17:11:20.032Z,19.65
2023-03-21T17:13:48.751Z,18.40
2023-03-21T17:16:22.088Z,19.20
2023-03-21T17:18:51.390Z,16.98
2023-03-21T17:21:21.338Z,17.65
2023-03-21T17:23:50.766Z,16.60
2023-03-21T17:26:21.882Z,19.25
2023-03-21T17:28:50.433Z,19.88
2023-03-21T17:31:21.967Z,17.85
2023-03-21T17:33:51.055Z,18.63
2023-03-21T17:36:20.850Z,18.80
2023-03-21T17:38:49.712Z,18.33
2023-03-21T17:41:20.194Z,15.98
2023-03-21T17:43:49.025Z,15.30
2023-03-21T17:46:22.269Z,16.83
2023-03-21T17:48:51.209Z,16.80
2023-03-21T17:51:19.416Z,17.38
2023-03-21T17:53:50.678Z,16.98
2023-03-21T17:56:22.813Z,18.80
2023-03-21T17:58:50.941Z,22.92
2023-03-21T18:01:21.058Z,16.17
2023-03-21T18:03:49.169Z,18.20
2023-03-21T18:06:18.876Z,17.30
2023-03-21T18:08:48.374Z,20.83
2023-03-21T18:11:17.938Z,20.48
2023-03-21T18:13:46.910Z,17.80
2023-03-21T18:16:17.905Z,17.33
2023-03-21T18:18:47.855Z,19.92
2023-03-21T18:21:19.512Z,18.05
2023-03-21T18:23:48.907Z,16.65
2023-03-21T18:26:19.787Z,21.40
2023-03-21T18:29:43.891Z,12.63
2023-03-21T18:31:39.351Z,13.40
2023-03-21T18:34:08.817Z,14.70
2023-03-21T18:36:36.998Z,16.35
2023-03-21T18:39:06.763Z,16.67
2023-03-21T18:41:34.985Z,17.88
2023-03-21T18:44:13.419Z,18.25
2023-03-21T18:46:47.448Z,14.82
2023-03-21T18:50:02.058Z,11.93
2023-03-21T18:52:07.832Z,11.25
2023-03-21T18:54:36.727Z,11.93
2023-03-21T18:57:35.753Z,16.15
2023-03-21T18:59:54.198Z,12.40
2023-03-21T19:02:22.380Z,16.55
2023-03-21T19:04:52.155Z,12.25
2023-03-21T19:07:20.499Z,12.32
2023-03-21T19:10:16.081Z,14.20
2023-03-21T19:12:36.857Z,13.65
2023-03-21T19:15:06.531Z,12.65
2023-03-21T19:18:23.150Z,13.43
2023-03-21T19:20:24.938Z,12.95
2023-03-21T19:22:53.586Z,10.30
2023-03-21T19:25:21.759Z,12.90
2023-03-21T19:27:52.111Z,10.68
2023-03-21T19:30:20.646Z,9.40
2023-03-21T19:32:48.742Z,10.82
2023-03-21T19:35:17.435Z,10.63
2023-03-21T19:37:47.369Z,12.98
2023-03-21T19:40:15.595Z,14.50
2023-03-21T19:42:43.663Z,14.50
2023-03-21T19:45:12.925Z,9.52
2023-03-21T19:47:41.303Z,10.88
2023-03-21T19:53:00.469Z,10.68
2023-03-21T19:55:28.695Z,11.60
2023-03-21T19:57:56.813Z,11.93
2023-03-21T20:00:25.055Z,13.02
2023-03-21T20:02:53.229Z,9.93
2023-03-21T20:05:22.059Z,9.95
2023-03-21T20:07:50.499Z,10.07
2023-03-21T20:10:20.617Z,15.75
2023-03-21T20:12:48.793Z,10.75
2023-03-21T20:15:20.785Z,12.45
2023-03-21T20:17:50.134Z,12.75
2023-03-21T20:20:19.347Z,11.32
2023-03-21T20:23:08.032Z,11.95
2023-03-21T20:25:40.941Z,10.48
2023-03-21T20:28:24.670Z,12.30
2023-03-21T20:30:58.516Z,11.23
2023-03-21T20:33:26.846Z,10.60
2023-03-21T20:38:50.856Z,13.00
2023-03-21T20:41:20.944Z,11.43
2023-03-21T20:46:37.928Z,9.85
2023-03-21T20:49:07.316Z,11.25
2023-03-21T20:54:24.475Z,9.48
2023-03-21T20:56:54.054Z,9.98
2023-03-21T20:59:27.246Z,10.27
2023-03-21T21:01:57.169Z,9.98
2023-03-21T21:04:46.958Z,14.45
2023-03-21T21:07:17.168Z,9.80
2023-03-21T21:09:46.015Z,10.75
2023-03-21T21:12:17.642Z,8.20
2023-03-21T21:14:47.968Z,13.82
2023-03-21T21:17:31.181Z,8.55
2023-03-21T21:20:16.235Z,11.68
2023-03-21T21:22:58.206Z,11.35
2023-03-21T21:25:27.739Z,11.80
2023-03-21T21:27:57.311Z,13.27
2023-03-21T21:30:25.666Z,11.60
2023-03-21T21:32:54.144Z,12.82
2023-03-21T21:35:22.734Z,14.18
2023-03-21T21:37:51.145Z,12.25
2023-03-21T21:40:23.285Z,9.00
2023-03-21T21:42:51.619Z,14.55
2023-03-21T21:45:21.463Z,9.50
2023-03-21T21:47:49.893Z,12.23
2023-03-21T21:50:18.908Z,9.52
2023-03-21T21:52:52.821Z,16.17
2023-03-21T21:55:21.332Z,9.40
2023-03-21T21:57:51.013Z,10.30
2023-03-21T22:00:21.680Z,10.32
2023-03-21T22:02:49.917Z,12.18
2023-03-21T22:05:19.329Z,17.05
2023-03-21T22:07:47.732Z,13.05
2023-03-21T22:10:16.251Z,12.55
2023-03-21T22:12:47.263Z,13.52
2023-03-21T22:15:18.206Z,19.63
2023-03-21T22:17:47.719Z,12.85
2023-03-21T22:20:18.520Z,12.38
2023-03-21T22:22:47.221Z,12.35
2023-03-21T22:25:16.936Z,14.68
2023-03-21T22:27:45.579Z,12.63
2023-03-21T22:30:17.439Z,12.70
2023-03-21T22:32:56.381Z,15.65
2023-03-21T22:35:31.207Z,12.10
2023-03-21T22:37:59.474Z,13.88
2023-03-21T22:40:27.763Z,15.48
2023-03-21T22:42:56.003Z,18.63
2023-03-21T22:45:24.175Z,18.80
2023-03-21T22:47:53.713Z,13.55
2023-03-21T22:50:22.280Z,18.95
2023-03-21T22:52:50.877Z,14.85
2023-03-21T22:55:19.148Z,13.70
2023-03-21T22:57:47.483Z,20.80
2023-03-21T23:00:16.452Z,14.73
2023-03-21T23:02:44.514Z,13.52
2023-03-21T23:05:14.369Z,15.63
2023-03-21T23:07:42.478Z,15.35
2023-03-21T23:10:12.609Z,15.55
2023-03-21T23:12:41.557Z,16.85
2023-03-21T23:15:11.036Z,13.05
2023-03-21T23:17:39.147Z,20.27
2023-03-21T23:20:08.772Z,16.05
2023-03-21T23:22:38.524Z,17.77
2023-03-21T23:25:07.715Z,17.23
2023-03-21T23:27:36.427Z,14.27
2023-03-21T23:30:06.347Z,17.10
2023-03-21T23:32:34.853Z,15.45
2023-03-21T23:35:03.474Z,15.18
2023-03-21T23:37:31.602Z,17.13
2023-03-21T23:40:01.141Z,15.23
2023-03-21T23:42:31.235Z,14.20
2023-03-21T23:44:59.371Z,18.52
2023-03-21T23:47:27.483Z,18.27
2023-03-21T23:49:55.803Z,16.60
2023-03-21T23:52:23.957Z,18.83
2023-03-21T23:54:52.274Z,17.95
2023-03-21T23:57:22.082Z,14.63
2023-03-21T23:59:50.262Z,17.90
